sensor_id;sensor_type;location;lat;lon;timestamp;P1;durP1;ratioP1;P2;durP2;ratioP2
20065;SDS011;10193;48.884;9.182;2023-12-14T00:00:24;1.45;;;1.35;;
20065;SDS011;10193;48.884;9.182;2023-12-14T00:02:51;1.70;;;1.60;;
20065;SDS011;10193;48.884;9.182;2023-12-14T00:05:19;2.33;;;1.52;;
20065;SDS011;10193;48.884;9.182;2023-12-14T00:07:45;2.08;;;1.73;;
20065;SDS011;10193;48.884;9.182;2023-12-14T00:10:12;1.50;;;1.40;;
20065;SDS011;10193;48.884;9.182;2023-12-14T00:12:39;1.90;;;1.70;;
20065;SDS011;10193;48.884;9.182;2023-12-14T00:15:06;1.70;;;1.60;;
20065;SDS011;10193;48.884;9.182;2023-12-14T00:17:33;1.90;;;1.80;;
20065;SDS011;10193;48.884;9.182;2023-12-14T00:20:00;1.98;;;1.85;;
20065;SDS011;10193;48.884;9.182;2023-12-14T00:22:29;2.20;;;1.95;;
20065;SDS011;10193;48.884;9.182;2023-12-14T00:24:55;2.00;;;1.90;;
20065;SDS011;10193;48.884;9.182;2023-12-14T00:27:22;1.73;;;1.63;;
20065;SDS011;10193;48.884;9.182;2023-12-14T00:29:49;1.90;;;1.80;;
20065;SDS011;10193;48.884;9.182;2023-12-14T00:32:15;1.80;;;1.60;;
20065;SDS011;10193;48.884;9.182;2023-12-14T00:34:42;1.75;;;1.65;;
20065;SDS011;10193;48.884;9.182;2023-12-14T00:37:09;1.85;;;1.75;;
20065;SDS011;10193;48.884;9.182;2023-12-14T00:39:36;1.70;;;1.60;;
20065;SDS011;10193;48.884;9.182;2023-12-14T00:42:03;2.03;;;1.58;;
20065;SDS011;10193;48.884;9.182;2023-12-14T00:44:30;2.70;;;1.55;;
20065;SDS011;10193;48.884;9.182;2023-12-14T00:46:57;1.80;;;1.70;;
20065;SDS011;10193;48.884;9.182;2023-12-14T00:49:25;1.77;;;1.67;;
20065;SDS011;10193;48.884;9.182;2023-12-14T00:51:53;1.77;;;1.63;;
20065;SDS011;10193;48.884;9.182;2023-12-14T00:54:19;1.70;;;1.60;;
20065;SDS011;10193;48.884;9.182;2023-12-14T00:56:47;1.58;;;1.48;;
20065;SDS011;10193;48.884;9.182;2023-12-14T00:59:14;1.90;;;1.58;;
20065;SDS011;10193;48.884;9.182;2023-12-14T01:01:40;1.80;;;1.42;;
20065;SDS011;10193;48.884;9.182;2023-12-14T01:04:07;2.92;;;1.60;;
20065;SDS011;10193;48.884;9.182;2023-12-14T01:06:34;1.58;;;1.48;;
20065;SDS011;10193;48.884;9.182;2023-12-14T01:09:00;1.60;;;1.50;;
20065;SDS011;10193;48.884;9.182;2023-12-14T01:11:27;1.80;;;1.65;;
20065;SDS011;10193;48.884;9.182;2023-12-14T01:13:55;2.00;;;1.67;;
20065;SDS011;10193;48.884;9.182;2023-12-14T01:16:21;1.60;;;1.50;;
20065;SDS011;10193;48.884;9.182;2023-12-14T01:18:52;3.28;;;1.55;;
20065;SDS011;10193;48.884;9.182;2023-12-14T01:21:18;1.70;;;1.60;;
20065;SDS011;10193;48.884;9.182;2023-12-14T01:23:45;1.30;;;1.20;;
20065;SDS011;10193;48.884;9.182;2023-12-14T01:26:12;1.50;;;1.40;;
20065;SDS011;10193;48.884;9.182;2023-12-14T01:28:38;1.80;;;1.70;;
20065;SDS011;10193;48.884;9.182;2023-12-14T01:31:06;1.38;;;1.27;;
20065;SDS011;10193;48.884;9.182;2023-12-14T01:33:33;1.67;;;1.20;;
20065;SDS011;10193;48.884;9.182;2023-12-14T01:36:00;1.40;;;1.20;;
20065;SDS011;10193;48.884;9.182;2023-12-14T01:38:26;1.25;;;1.25;;
20065;SDS011;10193;48.884;9.182;2023-12-14T01:40:53;1.42;;;1.15;;
20065;SDS011;10193;48.884;9.182;2023-12-14T01:43:21;1.00;;;1.00;;
20065;SDS011;10193;48.884;9.182;2023-12-14T01:45:47;1.20;;;1.10;;
20065;SDS011;10193;48.884;9.182;2023-12-14T01:48:15;1.67;;;1.40;;
20065;SDS011;10193;48.884;9.182;2023-12-14T01:50:43;1.73;;;1.10;;
20065;SDS011;10193;48.884;9.182;2023-12-14T01:53:10;1.40;;;1.30;;
20065;SDS011;10193;48.884;9.182;2023-12-14T01:55:37;1.10;;;1.05;;
20065;SDS011;10193;48.884;9.182;2023-12-14T01:58:04;2.17;;;1.15;;
20065;SDS011;10193;48.884;9.182;2023-12-14T02:00:33;1.13;;;1.08;;
20065;SDS011;10193;48.884;9.182;2023-12-14T02:03:04;1.20;;;1.10;;
20065;SDS011;10193;48.884;9.182;2023-12-14T02:05:32;1.42;;;1.25;;
20065;SDS011;10193;48.884;9.182;2023-12-14T02:07:59;1.30;;;1.20;;
20065;SDS011;10193;48.884;9.182;2023-12-14T02:10:25;1.10;;;1.10;;
20065;SDS011;10193;48.884;9.182;2023-12-14T02:12:52;1.13;;;1.02;;
20065;SDS011;10193;48.884;9.182;2023-12-14T02:15:19;1.38;;;1.27;;
20065;SDS011;10193;48.884;9.182;2023-12-14T02:17:46;1.27;;;1.13;;
20065;SDS011;10193;48.884;9.182;2023-12-14T02:20:12;1.20;;;1.10;;
20065;SDS011;10193;48.884;9.182;2023-12-14T02:22:49;1.40;;;1.10;;
20065;SDS011;10193;48.884;9.182;2023-12-14T02:25:16;1.33;;;1.23;;
20065;SDS011;10193;48.884;9.182;2023-12-14T02:27:43;1.30;;;1.23;;
20065;SDS011;10193;48.884;9.182;2023-12-14T02:30:10;2.70;;;1.20;;
20065;SDS011;10193;48.884;9.182;2023-12-14T02:32:37;1.38;;;1.15;;
20065;SDS011;10193;48.884;9.182;2023-12-14T02:35:05;1.17;;;1.08;;
20065;SDS011;10193;48.884;9.182;2023-12-14T02:37:33;1.00;;;1.00;;
20065;SDS011;10193;48.884;9.182;2023-12-14T02:40:03;1.58;;;1.30;;
20065;SDS011;10193;48.884;9.182;2023-12-14T02:42:31;1.20;;;1.10;;
20065;SDS011;10193;48.884;9.182;2023-12-14T02:44:58;1.02;;;0.95;;
20065;SDS011;10193;48.884;9.182;2023-12-14T02:47:26;1.10;;;1.10;;
20065;SDS011;10193;48.884;9.182;2023-12-14T02:49:53;1.10;;;1.05;;
20065;SDS011;10193;48.884;9.182;2023-12-14T02:52:20;1.00;;;1.00;;
20065;SDS011;10193;48.884;9.182;2023-12-14T02:54:46;1.20;;;1.10;;
20065;SDS011;10193;48.884;9.182;2023-12-14T02:57:14;0.80;;;0.80;;
20065;SDS011;10193;48.884;9.182;2023-12-14T02:59:41;1.10;;;1.02;;
20065;SDS011;10193;48.884;9.182;2023-12-14T03:02:08;1.15;;;1.00;;
20065;SDS011;10193;48.884;9.182;2023-12-14T03:04:34;1.20;;;1.10;;
20065;SDS011;10193;48.884;9.182;2023-12-14T03:07:03;0.85;;;0.85;;
20065;SDS011;10193;48.884;9.182;2023-12-14T03:09:30;1.40;;;1.30;;
20065;SDS011;10193;48.884;9.182;2023-12-14T03:11:57;1.80;;;1.23;;
20065;SDS011;10193;48.884;9.182;2023-12-14T03:14:26;0.90;;;0.90;;
20065;SDS011;10193;48.884;9.182;2023-12-14T03:16:58;1.25;;;1.15;;
20065;SDS011;10193;48.884;9.182;2023-12-14T03:19:25;1.50;;;1.13;;
20065;SDS011;10193;48.884;9.182;2023-12-14T03:21:51;0.95;;;0.95;;
20065;SDS011;10193;48.884;9.182;2023-12-14T03:24:18;1.48;;;1.15;;
20065;SDS011;10193;48.884;9.182;2023-12-14T03:26:45;1.30;;;1.20;;
20065;SDS011;10193;48.884;9.182;2023-12-14T03:29:11;1.27;;;1.10;;
20065;SDS011;10193;48.884;9.182;2023-12-14T03:31:40;1.50;;;1.40;;
20065;SDS011;10193;48.884;9.182;2023-12-14T03:34:06;1.50;;;1.40;;
20065;SDS011;10193;48.884;9.182;2023-12-14T03:36:33;2.13;;;1.38;;
20065;SDS011;10193;48.884;9.182;2023-12-14T03:39:00;1.38;;;1.27;;
20065;SDS011;10193;48.884;9.182;2023-12-14T03:41:26;1.42;;;1.20;;
20065;SDS011;10193;48.884;9.182;2023-12-14T03:43:53;1.00;;;1.00;;
20065;SDS011;10193;48.884;9.182;2023-12-14T03:46:20;1.20;;;1.10;;
20065;SDS011;10193;48.884;9.182;2023-12-14T03:48:48;1.17;;;1.02;;
20065;SDS011;10193;48.884;9.182;2023-12-14T03:51:17;1.42;;;1.33;;
20065;SDS011;10193;48.884;9.182;2023-12-14T03:53:44;1.30;;;1.20;;
20065;SDS011;10193;48.884;9.182;2023-12-14T03:56:12;1.42;;;1.20;;
20065;SDS011;10193;48.884;9.182;2023-12-14T03:58:38;1.10;;;1.00;;
20065;SDS011;10193;48.884;9.182;2023-12-14T04:01:05;3.13;;;1.38;;
20065;SDS011;10193;48.884;9.182;2023-12-14T04:03:32;1.50;;;1.42;;
20065;SDS011;10193;48.884;9.182;2023-12-14T04:06:00;1.45;;;1.35;;
20065;SDS011;10193;48.884;9.182;2023-12-14T04:08:27;3.20;;;1.27;;
20065;SDS011;10193;48.884;9.182;2023-12-14T04:10:53;1.23;;;1.20;;
20065;SDS011;10193;48.884;9.182;2023-12-14T04:13:20;1.45;;;1.35;;
20065;SDS011;10193;48.884;9.182;2023-12-14T04:15:47;1.70;;;1.60;;
20065;SDS011;10193;48.884;9.182;2023-12-14T04:18:16;1.80;;;1.70;;
20065;SDS011;10193;48.884;9.182;2023-12-14T04:20:43;1.92;;;1.83;;
20065;SDS011;10193;48.884;9.182;2023-12-14T04:23:11;1.75;;;1.65;;
20065;SDS011;10193;48.884;9.182;2023-12-14T04:25:38;2.25;;;1.80;;
20065;SDS011;10193;48.884;9.182;2023-12-14T04:28:04;1.83;;;1.73;;
20065;SDS011;10193;48.884;9.182;2023-12-14T04:30:31;1.98;;;1.88;;
20065;SDS011;10193;48.884;9.182;2023-12-14T04:32:58;2.17;;;1.98;;
20065;SDS011;10193;48.884;9.182;2023-12-14T04:35:24;2.35;;;2.15;;
20065;SDS011;10193;48.884;9.182;2023-12-14T04:37:51;2.13;;;2.03;;
20065;SDS011;10193;48.884;9.182;2023-12-14T04:40:19;2.00;;;1.90;;
20065;SDS011;10193;48.884;9.182;2023-12-14T04:42:46;2.33;;;2.13;;
20065;SDS011;10193;48.884;9.182;2023-12-14T04:45:12;2.55;;;2.35;;
20065;SDS011;10193;48.884;9.182;2023-12-14T04:47:39;2.58;;;2.38;;
20065;SDS011;10193;48.884;9.182;2023-12-14T04:50:06;2.30;;;2.10;;
20065;SDS011;10193;48.884;9.182;2023-12-14T04:52:33;2.45;;;2.25;;
20065;SDS011;10193;48.884;9.182;2023-12-14T04:54:59;2.45;;;2.35;;
20065;SDS011;10193;48.884;9.182;2023-12-14T04:57:27;2.60;;;2.40;;
20065;SDS011;10193;48.884;9.182;2023-12-14T04:59:54;2.70;;;2.50;;
20065;SDS011;10193;48.884;9.182;2023-12-14T05:02:20;2.60;;;2.38;;
20065;SDS011;10193;48.884;9.182;2023-12-14T05:04:47;2.30;;;2.20;;
20065;SDS011;10193;48.884;9.182;2023-12-14T05:07:14;2.30;;;2.10;;
20065;SDS011;10193;48.884;9.182;2023-12-14T05:09:41;2.40;;;2.20;;
20065;SDS011;10193;48.884;9.182;2023-12-14T05:12:08;2.13;;;1.92;;
20065;SDS011;10193;48.884;9.182;2023-12-14T05:14:36;2.35;;;2.17;;
20065;SDS011;10193;48.884;9.182;2023-12-14T05:17:02;2.53;;;2.33;;
20065;SDS011;10193;48.884;9.182;2023-12-14T05:19:31;2.55;;;2.45;;
20065;SDS011;10193;48.884;9.182;2023-12-14T05:21:58;2.25;;;2.15;;
20065;SDS011;10193;48.884;9.182;2023-12-14T05:24:25;4.00;;;2.70;;
20065;SDS011;10193;48.884;9.182;2023-12-14T05:26:51;2.53;;;2.40;;
20065;SDS011;10193;48.884;9.182;2023-12-14T05:29:18;2.80;;;2.50;;
20065;SDS011;10193;48.884;9.182;2023-12-14T05:31:48;3.72;;;2.80;;
20065;SDS011;10193;48.884;9.182;2023-12-14T05:34:15;3.63;;;3.33;;
20065;SDS011;10193;48.884;9.182;2023-12-14T05:36:42;3.60;;;3.30;;
20065;SDS011;10193;48.884;9.182;2023-12-14T05:39:08;4.22;;;3.38;;
20065;SDS011;10193;48.884;9.182;2023-12-14T05:41:39;3.50;;;3.20;;
20065;SDS011;10193;48.884;9.182;2023-12-14T05:44:06;3.22;;;3.00;;
20065;SDS011;10193;48.884;9.182;2023-12-14T05:46:32;3.42;;;3.13;;
20065;SDS011;10193;48.884;9.182;2023-12-14T05:49:00;3.50;;;3.20;;
20065;SDS011;10193;48.884;9.182;2023-12-14T05:51:27;3.10;;;2.90;;
20065;SDS011;10193;48.884;9.182;2023-12-14T05:53:55;2.80;;;2.60;;
20065;SDS011;10193;48.884;9.182;2023-12-14T05:56:22;3.22;;;3.00;;
20065;SDS011;10193;48.884;9.182;2023-12-14T05:58:48;3.30;;;3.03;;
20065;SDS011;10193;48.884;9.182;2023-12-14T06:01:16;3.28;;;3.08;;
20065;SDS011;10193;48.884;9.182;2023-12-14T06:03:43;3.30;;;3.00;;
20065;SDS011;10193;48.884;9.182;2023-12-14T06:06:11;3.30;;;3.00;;
20065;SDS011;10193;48.884;9.182;2023-12-14T06:08:39;3.55;;;3.30;;
20065;SDS011;10193;48.884;9.182;2023-12-14T06:11:06;5.55;;;3.20;;
20065;SDS011;10193;48.884;9.182;2023-12-14T06:13:33;3.40;;;3.20;;
20065;SDS011;10193;48.884;9.182;2023-12-14T06:16:00;3.08;;;2.88;;
20065;SDS011;10193;48.884;9.182;2023-12-14T06:18:27;3.30;;;3.10;;
20065;SDS011;10193;48.884;9.182;2023-12-14T06:20:54;3.15;;;2.95;;
20065;SDS011;10193;48.884;9.182;2023-12-14T06:23:22;3.78;;;2.90;;
20065;SDS011;10193;48.884;9.182;2023-12-14T06:25:50;2.83;;;2.63;;
20065;SDS011;10193;48.884;9.182;2023-12-14T06:28:17;3.30;;;3.00;;
20065;SDS011;10193;48.884;9.182;2023-12-14T06:30:43;3.40;;;3.10;;
20065;SDS011;10193;48.884;9.182;2023-12-14T06:33:10;3.00;;;2.80;;
20065;SDS011;10193;48.884;9.182;2023-12-14T06:35:37;3.40;;;3.10;;
20065;SDS011;10193;48.884;9.182;2023-12-14T06:38:03;3.40;;;3.10;;
20065;SDS011;10193;48.884;9.182;2023-12-14T06:40:31;3.47;;;3.17;;
20065;SDS011;10193;48.884;9.182;2023-12-14T06:42:58;3.55;;;3.25;;
20065;SDS011;10193;48.884;9.182;2023-12-14T06:45:25;4.00;;;3.60;;
20065;SDS011;10193;48.884;9.182;2023-12-14T06:47:51;3.42;;;3.20;;
20065;SDS011;10193;48.884;9.182;2023-12-14T06:50:18;3.45;;;3.15;;
20065;SDS011;10193;48.884;9.182;2023-12-14T06:52:45;3.78;;;3.45;;
20065;SDS011;10193;48.884;9.182;2023-12-14T06:55:11;3.55;;;3.30;;
20065;SDS011;10193;48.884;9.182;2023-12-14T06:57:41;3.45;;;3.25;;
20065;SDS011;10193;48.884;9.182;2023-12-14T07:00:09;4.40;;;3.40;;
20065;SDS011;10193;48.884;9.182;2023-12-14T07:02:37;4.22;;;3.78;;
20065;SDS011;10193;48.884;9.182;2023-12-14T07:05:03;4.35;;;4.03;;
20065;SDS011;10193;48.884;9.182;2023-12-14T07:07:31;4.40;;;4.00;;
20065;SDS011;10193;48.884;9.182;2023-12-14T07:09:57;5.28;;;4.75;;
20065;SDS011;10193;48.884;9.182;2023-12-14T07:12:24;6.20;;;5.25;;
20065;SDS011;10193;48.884;9.182;2023-12-14T07:14:52;5.50;;;4.97;;
20065;SDS011;10193;48.884;9.182;2023-12-14T07:17:18;6.05;;;5.55;;
20065;SDS011;10193;48.884;9.182;2023-12-14T07:19:45;6.07;;;5.50;;
20065;SDS011;10193;48.884;9.182;2023-12-14T07:22:12;6.47;;;5.88;;
20065;SDS011;10193;48.884;9.182;2023-12-14T07:24:38;6.82;;;6.22;;
20065;SDS011;10193;48.884;9.182;2023-12-14T07:27:05;6.80;;;6.07;;
20065;SDS011;10193;48.884;9.182;2023-12-14T07:29:32;6.95;;;6.25;;
20065;SDS011;10193;48.884;9.182;2023-12-14T07:32:00;7.05;;;6.35;;
20065;SDS011;10193;48.884;9.182;2023-12-14T07:34:26;7.28;;;6.57;;
20065;SDS011;10193;48.884;9.182;2023-12-14T07:36:53;7.20;;;6.50;;
20065;SDS011;10193;48.884;9.182;2023-12-14T07:39:20;7.10;;;6.50;;
20065;SDS011;10193;48.884;9.182;2023-12-14T07:41:46;6.85;;;6.20;;
20065;SDS011;10193;48.884;9.182;2023-12-14T07:44:13;7.43;;;6.63;;
20065;SDS011;10193;48.884;9.182;2023-12-14T07:46:40;7.38;;;6.68;;
20065;SDS011;10193;48.884;9.182;2023-12-14T07:49:09;7.55;;;6.85;;
20065;SDS011;10193;48.884;9.182;2023-12-14T07:51:36;7.78;;;7.03;;
20065;SDS011;10193;48.884;9.182;2023-12-14T07:54:03;6.90;;;6.28;;
20065;SDS011;10193;48.884;9.182;2023-12-14T07:56:30;7.18;;;6.57;;
20065;SDS011;10193;48.884;9.182;2023-12-14T07:58:58;7.25;;;6.55;;
20065;SDS011;10193;48.884;9.182;2023-12-14T08:01:25;7.35;;;6.75;;
20065;SDS011;10193;48.884;9.182;2023-12-14T08:03:51;7.38;;;6.68;;
20065;SDS011;10193;48.884;9.182;2023-12-14T08:06:19;7.13;;;6.43;;
20065;SDS011;10193;48.884;9.182;2023-12-14T08:08:46;6.88;;;6.28;;
20065;SDS011;10193;48.884;9.182;2023-12-14T08:11:12;7.03;;;6.32;;
20065;SDS011;10193;48.884;9.182;2023-12-14T08:13:39;7.07;;;6.47;;
20065;SDS011;10193;48.884;9.182;2023-12-14T08:16:06;7.57;;;6.88;;
20065;SDS011;10193;48.884;9.182;2023-12-14T08:18:36;7.25;;;6.60;;
20065;SDS011;10193;48.884;9.182;2023-12-14T08:21:03;6.32;;;5.72;;
20065;SDS011;10193;48.884;9.182;2023-12-14T08:23:31;7.05;;;6.35;;
20065;SDS011;10193;48.884;9.182;2023-12-14T08:25:58;7.20;;;6.50;;
20065;SDS011;10193;48.884;9.182;2023-12-14T08:28:24;7.63;;;6.82;;
20065;SDS011;10193;48.884;9.182;2023-12-14T08:30:51;7.43;;;6.72;;
20065;SDS011;10193;48.884;9.182;2023-12-14T08:33:18;7.43;;;6.72;;
20065;SDS011;10193;48.884;9.182;2023-12-14T08:35:44;7.47;;;6.75;;
20065;SDS011;10193;48.884;9.182;2023-12-14T08:38:11;7.57;;;6.88;;
20065;SDS011;10193;48.884;9.182;2023-12-14T08:40:39;7.68;;;6.88;;
20065;SDS011;10193;48.884;9.182;2023-12-14T08:43:06;7.57;;;6.75;;
20065;SDS011;10193;48.884;9.182;2023-12-14T08:45:33;7.57;;;6.88;;
20065;SDS011;10193;48.884;9.182;2023-12-14T08:47:59;7.72;;;7.03;;
20065;SDS011;10193;48.884;9.182;2023-12-14T08:50:26;7.90;;;7.20;;
20065;SDS011;10193;48.884;9.182;2023-12-14T08:52:53;7.72;;;7.03;;
20065;SDS011;10193;48.884;9.182;2023-12-14T08:55:19;8.00;;;7.22;;
20065;SDS011;10193;48.884;9.182;2023-12-14T08:57:48;7.85;;;7.10;;
20065;SDS011;10193;48.884;9.182;2023-12-14T09:00:15;8.32;;;7.53;;
20065;SDS011;10193;48.884;9.182;2023-12-14T09:02:42;7.72;;;7.03;;
20065;SDS011;10193;48.884;9.182;2023-12-14T09:05:11;7.85;;;7.05;;
20065;SDS011;10193;48.884;9.182;2023-12-14T09:07:39;8.30;;;7.50;;
20065;SDS011;10193;48.884;9.182;2023-12-14T09:10:06;7.93;;;7.22;;
20065;SDS011;10193;48.884;9.182;2023-12-14T09:12:33;8.38;;;7.60;;
20065;SDS011;10193;48.884;9.182;2023-12-14T09:15:02;8.32;;;7.43;;
20065;SDS011;10193;48.884;9.182;2023-12-14T09:17:29;8.70;;;7.88;;
20065;SDS011;10193;48.884;9.182;2023-12-14T09:19:58;8.10;;;7.40;;
20065;SDS011;10193;48.884;9.182;2023-12-14T09:22:24;8.02;;;7.22;;
20065;SDS011;10193;48.884;9.182;2023-12-14T09:24:52;8.25;;;7.45;;
20065;SDS011;10193;48.884;9.182;2023-12-14T09:27:18;7.70;;;7.00;;
20065;SDS011;10193;48.884;9.182;2023-12-14T09:29:45;8.20;;;7.30;;
20065;SDS011;10193;48.884;9.182;2023-12-14T09:32:13;7.93;;;7.00;;
20065;SDS011;10193;48.884;9.182;2023-12-14T09:34:42;7.85;;;7.15;;
20065;SDS011;10193;48.884;9.182;2023-12-14T09:37:09;7.72;;;7.03;;
20065;SDS011;10193;48.884;9.182;2023-12-14T09:39:36;8.95;;;7.85;;
20065;SDS011;10193;48.884;9.182;2023-12-14T09:42:03;8.75;;;7.85;;
20065;SDS011;10193;48.884;9.182;2023-12-14T09:44:31;8.10;;;7.30;;
20065;SDS011;10193;48.884;9.182;2023-12-14T09:46:59;8.05;;;7.25;;
20065;SDS011;10193;48.884;9.182;2023-12-14T09:49:28;7.97;;;7.18;;
20065;SDS011;10193;48.884;9.182;2023-12-14T09:51:56;7.82;;;7.03;;
20065;SDS011;10193;48.884;9.182;2023-12-14T09:54:22;8.10;;;7.22;;
20065;SDS011;10193;48.884;9.182;2023-12-14T09:56:49;7.70;;;7.00;;
20065;SDS011;10193;48.884;9.182;2023-12-14T09:59:17;7.88;;;7.10;;
20065;SDS011;10193;48.884;9.182;2023-12-14T10:01:44;8.07;;;7.28;;
20065;SDS011;10193;48.884;9.182;2023-12-14T10:04:11;7.75;;;7.05;;
20065;SDS011;10193;48.884;9.182;2023-12-14T10:06:40;7.65;;;6.63;;
20065;SDS011;10193;48.884;9.182;2023-12-14T10:09:08;7.90;;;7.15;;
20065;SDS011;10193;48.884;9.182;2023-12-14T10:11:38;7.45;;;6.75;;
20065;SDS011;10193;48.884;9.182;2023-12-14T10:14:13;7.25;;;6.55;;
20065;SDS011;10193;48.884;9.182;2023-12-14T10:16:44;7.78;;;6.28;;
20065;SDS011;10193;48.884;9.182;2023-12-14T10:19:11;6.90;;;6.30;;
20065;SDS011;10193;48.884;9.182;2023-12-14T10:21:38;7.07;;;6.35;;
20065;SDS011;10193;48.884;9.182;2023-12-14T10:24:07;7.07;;;6.45;;
20065;SDS011;10193;48.884;9.182;2023-12-14T10:26:33;6.90;;;6.20;;
20065;SDS011;10193;48.884;9.182;2023-12-14T10:29:00;6.72;;;5.97;;
20065;SDS011;10193;48.884;9.182;2023-12-14T10:31:29;7.10;;;6.50;;
20065;SDS011;10193;48.884;9.182;2023-12-14T10:33:56;6.75;;;6.05;;
20065;SDS011;10193;48.884;9.182;2023-12-14T10:36:24;6.80;;;6.20;;
20065;SDS011;10193;48.884;9.182;2023-12-14T10:38:52;6.43;;;5.82;;
20065;SDS011;10193;48.884;9.182;2023-12-14T10:41:21;7.03;;;6.38;;
20065;SDS011;10193;48.884;9.182;2023-12-14T10:43:49;6.40;;;5.80;;
20065;SDS011;10193;48.884;9.182;2023-12-14T10:46:17;6.70;;;6.00;;
20065;SDS011;10193;48.884;9.182;2023-12-14T10:48:45;7.80;;;7.00;;
20065;SDS011;10193;48.884;9.182;2023-12-14T10:51:14;6.60;;;5.90;;
20065;SDS011;10193;48.884;9.182;2023-12-14T10:53:43;6.53;;;5.68;;
20065;SDS011;10193;48.884;9.182;2023-12-14T10:56:12;5.90;;;5.32;;
20065;SDS011;10193;48.884;9.182;2023-12-14T10:58:47;6.80;;;6.15;;
20065;SDS011;10193;48.884;9.182;2023-12-14T11:01:16;5.88;;;5.35;;
20065;SDS011;10193;48.884;9.182;2023-12-14T11:03:46;6.88;;;5.88;;
20065;SDS011;10193;48.884;9.182;2023-12-14T11:06:21;6.65;;;6.00;;
20065;SDS011;10193;48.884;9.182;2023-12-14T11:08:56;6.43;;;5.82;;
20065;SDS011;10193;48.884;9.182;2023-12-14T11:11:27;6.30;;;5.70;;
20065;SDS011;10193;48.884;9.182;2023-12-14T11:13:56;6.65;;;6.05;;
20065;SDS011;10193;48.884;9.182;2023-12-14T11:16:23;5.80;;;5.30;;
20065;SDS011;10193;48.884;9.182;2023-12-14T11:21:59;6.38;;;5.78;;
20065;SDS011;10193;48.884;9.182;2023-12-14T11:24:37;6.95;;;6.22;;
20065;SDS011;10193;48.884;9.182;2023-12-14T11:27:07;6.60;;;5.90;;
20065;SDS011;10193;48.884;9.182;2023-12-14T11:29:36;5.85;;;5.35;;
20065;SDS011;10193;48.884;9.182;2023-12-14T11:32:05;6.78;;;5.88;;
20065;SDS011;10193;48.884;9.182;2023-12-14T11:34:32;7.30;;;6.60;;
20065;SDS011;10193;48.884;9.182;2023-12-14T11:36:58;6.57;;;6.00;;
20065;SDS011;10193;48.884;9.182;2023-12-14T11:39:29;6.38;;;5.78;;
20065;SDS011;10193;48.884;9.182;2023-12-14T11:42:00;6.93;;;6.22;;
20065;SDS011;10193;48.884;9.182;2023-12-14T11:44:27;6.38;;;5.78;;
20065;SDS011;10193;48.884;9.182;2023-12-14T11:46:55;7.40;;;5.97;;
20065;SDS011;10193;48.884;9.182;2023-12-14T11:49:23;7.13;;;6.43;;
20065;SDS011;10193;48.884;9.182;2023-12-14T11:51:51;6.43;;;5.72;;
20065;SDS011;10193;48.884;9.182;2023-12-14T11:54:18;6.28;;;5.70;;
20065;SDS011;10193;48.884;9.182;2023-12-14T11:56:46;6.35;;;5.85;;
20065;SDS011;10193;48.884;9.182;2023-12-14T11:59:14;6.32;;;5.82;;
20065;SDS011;10193;48.884;9.182;2023-12-14T12:01:53;5.93;;;5.32;;
20065;SDS011;10193;48.884;9.182;2023-12-14T12:04:21;6.15;;;5.55;;
20065;SDS011;10193;48.884;9.182;2023-12-14T12:06:48;6.13;;;5.55;;
20065;SDS011;10193;48.884;9.182;2023-12-14T12:12:01;6.10;;;5.50;;
20065;SDS011;10193;48.884;9.182;2023-12-14T12:14:31;6.00;;;5.45;;
20065;SDS011;10193;48.884;9.182;2023-12-14T12:16:58;6.25;;;5.65;;
20065;SDS011;10193;48.884;9.182;2023-12-14T12:19:24;6.20;;;5.47;;
20065;SDS011;10193;48.884;9.182;2023-12-14T12:21:51;5.90;;;5.38;;
20065;SDS011;10193;48.884;9.182;2023-12-14T12:24:18;5.60;;;5.10;;
20065;SDS011;10193;48.884;9.182;2023-12-14T12:26:45;5.20;;;4.70;;
20065;SDS011;10193;48.884;9.182;2023-12-14T12:29:11;4.38;;;4.03;;
20065;SDS011;10193;48.884;9.182;2023-12-14T12:31:38;4.07;;;3.78;;
20065;SDS011;10193;48.884;9.182;2023-12-14T12:34:06;3.65;;;3.35;;
20065;SDS011;10193;48.884;9.182;2023-12-14T12:36:33;3.08;;;2.85;;
20065;SDS011;10193;48.884;9.182;2023-12-14T12:38:59;3.00;;;2.78;;
20065;SDS011;10193;48.884;9.182;2023-12-14T12:41:26;2.90;;;2.70;;
20065;SDS011;10193;48.884;9.182;2023-12-14T12:43:53;2.70;;;2.50;;
20065;SDS011;10193;48.884;9.182;2023-12-14T12:46:19;3.53;;;3.10;;
20065;SDS011;10193;48.884;9.182;2023-12-14T12:48:46;3.08;;;2.78;;
20065;SDS011;10193;48.884;9.182;2023-12-14T12:51:15;2.85;;;2.65;;
20065;SDS011;10193;48.884;9.182;2023-12-14T12:53:42;2.80;;;2.55;;
20065;SDS011;10193;48.884;9.182;2023-12-14T12:56:09;3.20;;;2.90;;
20065;SDS011;10193;48.884;9.182;2023-12-14T12:58:35;3.30;;;3.00;;
20065;SDS011;10193;48.884;9.182;2023-12-14T13:01:02;3.30;;;3.00;;
20065;SDS011;10193;48.884;9.182;2023-12-14T13:03:29;3.47;;;3.17;;
20065;SDS011;10193;48.884;9.182;2023-12-14T13:05:56;3.83;;;3.42;;
20065;SDS011;10193;48.884;9.182;2023-12-14T13:08:24;3.83;;;3.53;;
20065;SDS011;10193;48.884;9.182;2023-12-14T13:10:50;4.40;;;4.00;;
20065;SDS011;10193;48.884;9.182;2023-12-14T13:13:18;4.40;;;4.00;;
20065;SDS011;10193;48.884;9.182;2023-12-14T13:15:45;3.70;;;3.40;;
20065;SDS011;10193;48.884;9.182;2023-12-14T13:18:12;3.95;;;3.55;;
20065;SDS011;10193;48.884;9.182;2023-12-14T13:20:40;4.10;;;3.70;;
20065;SDS011;10193;48.884;9.182;2023-12-14T13:23:07;3.95;;;3.65;;
20065;SDS011;10193;48.884;9.182;2023-12-14T13:25:35;3.90;;;3.58;;
20065;SDS011;10193;48.884;9.182;2023-12-14T13:28:02;3.80;;;3.50;;
20065;SDS011;10193;48.884;9.182;2023-12-14T13:30:29;4.05;;;3.75;;
20065;SDS011;10193;48.884;9.182;2023-12-14T13:32:56;3.55;;;3.25;;
20065;SDS011;10193;48.884;9.182;2023-12-14T13:35:23;3.42;;;3.13;;
20065;SDS011;10193;48.884;9.182;2023-12-14T13:37:49;3.50;;;3.20;;
20065;SDS011;10193;48.884;9.182;2023-12-14T13:40:16;3.42;;;2.95;;
20065;SDS011;10193;48.884;9.182;2023-12-14T13:42:45;3.30;;;3.00;;
20065;SDS011;10193;48.884;9.182;2023-12-14T13:45:11;3.22;;;3.03;;
20065;SDS011;10193;48.884;9.182;2023-12-14T13:47:38;3.42;;;2.90;;
20065;SDS011;10193;48.884;9.182;2023-12-14T13:50:05;3.00;;;2.80;;
20065;SDS011;10193;48.884;9.182;2023-12-14T13:52:33;3.17;;;2.92;;
20065;SDS011;10193;48.884;9.182;2023-12-14T13:55:00;3.10;;;2.90;;
20065;SDS011;10193;48.884;9.182;2023-12-14T13:57:27;3.45;;;3.10;;
20065;SDS011;10193;48.884;9.182;2023-12-14T13:59:55;3.25;;;2.97;;
20065;SDS011;10193;48.884;9.182;2023-12-14T14:02:22;3.90;;;3.50;;
20065;SDS011;10193;48.884;9.182;2023-12-14T14:04:52;4.28;;;3.88;;
20065;SDS011;10193;48.884;9.182;2023-12-14T14:07:19;3.80;;;3.50;;
20065;SDS011;10193;48.884;9.182;2023-12-14T14:09:46;3.88;;;3.58;;
20065;SDS011;10193;48.884;9.182;2023-12-14T14:12:13;4.82;;;4.25;;
20065;SDS011;10193;48.884;9.182;2023-12-14T14:14:39;5.10;;;4.60;;
20065;SDS011;10193;48.884;9.182;2023-12-14T14:17:07;4.75;;;4.25;;
20065;SDS011;10193;48.884;9.182;2023-12-14T14:19:35;4.95;;;4.50;;
20065;SDS011;10193;48.884;9.182;2023-12-14T14:22:02;5.28;;;4.78;;
20065;SDS011;10193;48.884;9.182;2023-12-14T14:24:29;5.40;;;4.90;;
20065;SDS011;10193;48.884;9.182;2023-12-14T14:26:56;5.55;;;5.03;;
20065;SDS011;10193;48.884;9.182;2023-12-14T14:29:23;5.28;;;4.82;;
20065;SDS011;10193;48.884;9.182;2023-12-14T14:31:49;5.43;;;4.93;;
20065;SDS011;10193;48.884;9.182;2023-12-14T14:34:17;5.28;;;4.78;;
20065;SDS011;10193;48.884;9.182;2023-12-14T14:36:45;5.35;;;4.85;;
20065;SDS011;10193;48.884;9.182;2023-12-14T14:39:11;5.50;;;5.00;;
20065;SDS011;10193;48.884;9.182;2023-12-14T14:41:38;5.40;;;4.90;;
20065;SDS011;10193;48.884;9.182;2023-12-14T14:44:05;5.72;;;5.22;;
20065;SDS011;10193;48.884;9.182;2023-12-14T14:46:31;6.00;;;5.20;;
20065;SDS011;10193;48.884;9.182;2023-12-14T14:48:58;5.47;;;4.97;;
20065;SDS011;10193;48.884;9.182;2023-12-14T14:51:27;5.55;;;5.00;;
20065;SDS011;10193;48.884;9.182;2023-12-14T14:53:55;5.80;;;5.30;;